sensor_id;sensor_type;location;lat;lon;timestamp;P1;durP1;ratioP1;P2;durP2;ratioP2
70715;SDS011;59053;50.832;12.882;2023-03-29T00:02:24;11.37;;;3.53;;
70715;SDS011;59053;50.832;12.882;2023-03-29T00:04:55;10.90;;;3.33;;
70715;SDS011;59053;50.832;12.882;2023-03-29T00:07:28;13.25;;;3.45;;
70715;SDS011;59053;50.832;12.882;2023-03-29T00:12:41;8.05;;;2.70;;
70715;SDS011;59053;50.832;12.882;2023-03-29T00:15:06;11.63;;;3.03;;
70715;SDS011;59053;50.832;12.882;2023-03-29T00:17:32;8.40;;;2.70;;
70715;SDS011;59053;50.832;12.882;2023-03-29T00:19:58;6.07;;;2.50;;
70715;SDS011;59053;50.832;12.882;2023-03-29T00:22:23;11.23;;;2.90;;
70715;SDS011;59053;50.832;12.882;2023-03-29T00:24:52;9.40;;;2.70;;
70715;SDS011;59053;50.832;12.882;2023-03-29T00:27:25;8.35;;;2.60;;
70715;SDS011;59053;50.832;12.882;2023-03-29T00:29:50;9.70;;;3.05;;
70715;SDS011;59053;50.832;12.882;2023-03-29T00:32:15;6.73;;;2.80;;
70715;SDS011;59053;50.832;12.882;2023-03-29T00:34:41;10.40;;;3.00;;
70715;SDS011;59053;50.832;12.882;2023-03-29T00:37:09;8.52;;;2.80;;
70715;SDS011;59053;50.832;12.882;2023-03-29T00:39:36;7.50;;;2.92;;
70715;SDS011;59053;50.832;12.882;2023-03-29T00:42:02;10.57;;;3.73;;
70715;SDS011;59053;50.832;12.882;2023-03-29T00:47:28;11.10;;;4.30;;
70715;SDS011;59053;50.832;12.882;2023-03-29T00:50:12;14.48;;;4.63;;
70715;SDS011;59053;50.832;12.882;2023-03-29T00:58:27;13.93;;;4.90;;
70715;SDS011;59053;50.832;12.882;2023-03-29T01:01:02;12.43;;;4.80;;
70715;SDS011;59053;50.832;12.882;2023-03-29T01:06:52;12.10;;;4.28;;
70715;SDS011;59053;50.832;12.882;2023-03-29T01:09:21;19.38;;;4.43;;
70715;SDS011;59053;50.832;12.882;2023-03-29T01:11:52;13.03;;;4.80;;
70715;SDS011;59053;50.832;12.882;2023-03-29T01:14:21;12.45;;;4.35;;
70715;SDS011;59053;50.832;12.882;2023-03-29T01:16:49;12.40;;;4.65;;
70715;SDS011;59053;50.832;12.882;2023-03-29T01:19:16;15.03;;;5.00;;
70715;SDS011;59053;50.832;12.882;2023-03-29T01:31:12;11.17;;;3.80;;
70715;SDS011;59053;50.832;12.882;2023-03-29T01:33:47;10.88;;;4.53;;
70715;SDS011;59053;50.832;12.882;2023-03-29T01:36:15;12.18;;;4.30;;
70715;SDS011;59053;50.832;12.882;2023-03-29T01:38:59;13.27;;;4.85;;
70715;SDS011;59053;50.832;12.882;2023-03-29T01:44:09;13.83;;;4.03;;
70715;SDS011;59053;50.832;12.882;2023-03-29T01:46:48;12.20;;;4.43;;
70715;SDS011;59053;50.832;12.882;2023-03-29T01:52:04;9.85;;;3.92;;
70715;SDS011;59053;50.832;12.882;2023-03-29T01:54:37;10.38;;;3.85;;
70715;SDS011;59053;50.832;12.882;2023-03-29T01:57:11;10.40;;;3.57;;
70715;SDS011;59053;50.832;12.882;2023-03-29T01:59:39;12.32;;;4.18;;
70715;SDS011;59053;50.832;12.882;2023-03-29T02:02:07;14.02;;;3.88;;
70715;SDS011;59053;50.832;12.882;2023-03-29T02:04:38;11.85;;;3.53;;
70715;SDS011;59053;50.832;12.882;2023-03-29T02:07:08;13.48;;;4.03;;
70715;SDS011;59053;50.832;12.882;2023-03-29T02:09:34;13.80;;;4.00;;
70715;SDS011;59053;50.832;12.882;2023-03-29T02:12:02;11.30;;;3.65;;
70715;SDS011;59053;50.832;12.882;2023-03-29T02:14:31;14.35;;;4.45;;
70715;SDS011;59053;50.832;12.882;2023-03-29T02:17:07;12.93;;;4.20;;
70715;SDS011;59053;50.832;12.882;2023-03-29T02:19:38;13.50;;;3.95;;
70715;SDS011;59053;50.832;12.882;2023-03-29T02:22:04;11.57;;;3.23;;
70715;SDS011;59053;50.832;12.882;2023-03-29T02:24:32;12.32;;;3.70;;
70715;SDS011;59053;50.832;12.882;2023-03-29T02:26:58;11.88;;;3.60;;
70715;SDS011;59053;50.832;12.882;2023-03-29T02:29:24;16.40;;;3.50;;
70715;SDS011;59053;50.832;12.882;2023-03-29T02:31:52;10.20;;;3.63;;
70715;SDS011;59053;50.832;12.882;2023-03-29T02:36:55;7.97;;;2.60;;
70715;SDS011;59053;50.832;12.882;2023-03-29T02:39:24;8.57;;;3.00;;
70715;SDS011;59053;50.832;12.882;2023-03-29T02:42:06;8.73;;;2.73;;
70715;SDS011;59053;50.832;12.882;2023-03-29T02:44:34;8.13;;;3.20;;
70715;SDS011;59053;50.832;12.882;2023-03-29T02:47:04;6.93;;;2.58;;
70715;SDS011;59053;50.832;12.882;2023-03-29T02:49:38;9.05;;;2.85;;
70715;SDS011;59053;50.832;12.882;2023-03-29T02:55:10;10.70;;;3.00;;
70715;SDS011;59053;50.832;12.882;2023-03-29T02:57:56;9.30;;;2.90;;
70715;SDS011;59053;50.832;12.882;2023-03-29T03:00:22;10.98;;;3.08;;
70715;SDS011;59053;50.832;12.882;2023-03-29T03:03:03;8.17;;;2.73;;
70715;SDS011;59053;50.832;12.882;2023-03-29T03:05:30;9.43;;;3.10;;
70715;SDS011;59053;50.832;12.882;2023-03-29T03:07:55;11.17;;;2.83;;
70715;SDS011;59053;50.832;12.882;2023-03-29T03:10:28;8.27;;;2.97;;
70715;SDS011;59053;50.832;12.882;2023-03-29T03:12:55;9.90;;;3.03;;
70715;SDS011;59053;50.832;12.882;2023-03-29T03:15:21;8.70;;;3.77;;
70715;SDS011;59053;50.832;12.882;2023-03-29T03:17:46;11.47;;;3.77;;
70715;SDS011;59053;50.832;12.882;2023-03-29T03:20:13;11.27;;;3.47;;
70715;SDS011;59053;50.832;12.882;2023-03-29T03:22:40;12.98;;;3.88;;
70715;SDS011;59053;50.832;12.882;2023-03-29T03:25:06;9.68;;;3.80;;
70715;SDS011;59053;50.832;12.882;2023-03-29T03:34:01;10.02;;;3.65;;
70715;SDS011;59053;50.832;12.882;2023-03-29T03:36:38;9.52;;;3.40;;
70715;SDS011;59053;50.832;12.882;2023-03-29T03:39:03;9.73;;;3.40;;
70715;SDS011;59053;50.832;12.882;2023-03-29T03:41:31;10.60;;;3.70;;
70715;SDS011;59053;50.832;12.882;2023-03-29T03:43:57;10.18;;;3.30;;
70715;SDS011;59053;50.832;12.882;2023-03-29T03:46:23;9.87;;;3.43;;
70715;SDS011;59053;50.832;12.882;2023-03-29T03:48:48;9.10;;;3.63;;
70715;SDS011;59053;50.832;12.882;2023-03-29T03:51:28;10.63;;;3.15;;
70715;SDS011;59053;50.832;12.882;2023-03-29T03:53:54;8.87;;;3.30;;
70715;SDS011;59053;50.832;12.882;2023-03-29T03:56:32;11.13;;;3.47;;
70715;SDS011;59053;50.832;12.882;2023-03-29T03:59:15;10.93;;;3.88;;
70715;SDS011;59053;50.832;12.882;2023-03-29T04:01:59;12.20;;;3.83;;
70715;SDS011;59053;50.832;12.882;2023-03-29T04:04:33;12.83;;;4.27;;
70715;SDS011;59053;50.832;12.882;2023-03-29T04:10:54;13.98;;;4.75;;
70715;SDS011;59053;50.832;12.882;2023-03-29T04:16:32;15.45;;;4.97;;
70715;SDS011;59053;50.832;12.882;2023-03-29T04:19:08;12.52;;;4.13;;
70715;SDS011;59053;50.832;12.882;2023-03-29T04:21:34;10.33;;;3.27;;
70715;SDS011;59053;50.832;12.882;2023-03-29T04:23:59;8.80;;;3.03;;
70715;SDS011;59053;50.832;12.882;2023-03-29T04:29:25;12.30;;;4.53;;
70715;SDS011;59053;50.832;12.882;2023-03-29T04:31:59;8.70;;;3.10;;
70715;SDS011;59053;50.832;12.882;2023-03-29T04:34:53;9.82;;;3.70;;
70715;SDS011;59053;50.832;12.882;2023-03-29T04:37:19;10.70;;;3.57;;
70715;SDS011;59053;50.832;12.882;2023-03-29T04:39:48;8.32;;;3.38;;
70715;SDS011;59053;50.832;12.882;2023-03-29T04:45:33;10.57;;;3.67;;
70715;SDS011;59053;50.832;12.882;2023-03-29T04:48:08;9.83;;;3.17;;
70715;SDS011;59053;50.832;12.882;2023-03-29T04:50:35;14.82;;;3.50;;
70715;SDS011;59053;50.832;12.882;2023-03-29T04:53:01;8.95;;;3.58;;
70715;SDS011;59053;50.832;12.882;2023-03-29T04:55:27;13.60;;;4.07;;
70715;SDS011;59053;50.832;12.882;2023-03-29T04:57:58;11.80;;;4.38;;
70715;SDS011;59053;50.832;12.882;2023-03-29T05:03:38;8.02;;;3.60;;
70715;SDS011;59053;50.832;12.882;2023-03-29T05:06:12;12.32;;;3.97;;
70715;SDS011;59053;50.832;12.882;2023-03-29T05:08:45;9.10;;;3.20;;
70715;SDS011;59053;50.832;12.882;2023-03-29T05:11:20;7.95;;;3.20;;
70715;SDS011;59053;50.832;12.882;2023-03-29T05:13:51;7.68;;;3.20;;
70715;SDS011;59053;50.832;12.882;2023-03-29T05:16:16;8.83;;;3.50;;
70715;SDS011;59053;50.832;12.882;2023-03-29T05:18:45;6.75;;;3.20;;
70715;SDS011;59053;50.832;12.882;2023-03-29T05:24:34;8.40;;;3.05;;
70715;SDS011;59053;50.832;12.882;2023-03-29T05:27:13;7.97;;;3.03;;
70715;SDS011;59053;50.832;12.882;2023-03-29T05:29:40;8.80;;;3.60;;
70715;SDS011;59053;50.832;12.882;2023-03-29T05:32:37;9.85;;;3.35;;
70715;SDS011;59053;50.832;12.882;2023-03-29T05:35:07;9.35;;;3.70;;
70715;SDS011;59053;50.832;12.882;2023-03-29T05:37:33;12.95;;;4.60;;
70715;SDS011;59053;50.832;12.882;2023-03-29T05:40:00;11.77;;;4.03;;
70715;SDS011;59053;50.832;12.882;2023-03-29T05:42:30;9.13;;;3.93;;
70715;SDS011;59053;50.832;12.882;2023-03-29T05:44:59;10.55;;;3.90;;
70715;SDS011;59053;50.832;12.882;2023-03-29T05:47:26;8.27;;;3.80;;
70715;SDS011;59053;50.832;12.882;2023-03-29T05:49:53;9.32;;;3.58;;
70715;SDS011;59053;50.832;12.882;2023-03-29T05:52:20;12.75;;;4.15;;
70715;SDS011;59053;50.832;12.882;2023-03-29T05:54:45;11.37;;;4.47;;
70715;SDS011;59053;50.832;12.882;2023-03-29T05:57:11;15.77;;;4.47;;
70715;SDS011;59053;50.832;12.882;2023-03-29T05:59:37;10.98;;;4.30;;
70715;SDS011;59053;50.832;12.882;2023-03-29T06:02:03;12.85;;;4.30;;
70715;SDS011;59053;50.832;12.882;2023-03-29T06:04:30;11.33;;;4.10;;
70715;SDS011;59053;50.832;12.882;2023-03-29T06:07:14;11.18;;;4.32;;
70715;SDS011;59053;50.832;12.882;2023-03-29T06:09:44;13.15;;;5.07;;
70715;SDS011;59053;50.832;12.882;2023-03-29T06:12:09;15.17;;;4.70;;
70715;SDS011;59053;50.832;12.882;2023-03-29T06:14:46;11.48;;;4.63;;
70715;SDS011;59053;50.832;12.882;2023-03-29T06:17:25;9.70;;;4.00;;
70715;SDS011;59053;50.832;12.882;2023-03-29T06:19:51;10.35;;;3.92;;
70715;SDS011;59053;50.832;12.882;2023-03-29T06:22:26;9.85;;;4.30;;
70715;SDS011;59053;50.832;12.882;2023-03-29T06:24:52;11.17;;;4.43;;
70715;SDS011;59053;50.832;12.882;2023-03-29T06:27:24;11.65;;;4.53;;
70715;SDS011;59053;50.832;12.882;2023-03-29T06:29:50;10.45;;;3.90;;
70715;SDS011;59053;50.832;12.882;2023-03-29T06:32:16;9.20;;;4.50;;
70715;SDS011;59053;50.832;12.882;2023-03-29T06:35:04;11.77;;;4.32;;
70715;SDS011;59053;50.832;12.882;2023-03-29T06:37:38;10.15;;;4.00;;
70715;SDS011;59053;50.832;12.882;2023-03-29T06:40:16;9.70;;;3.85;;
70715;SDS011;59053;50.832;12.882;2023-03-29T06:42:44;10.57;;;4.00;;
70715;SDS011;59053;50.832;12.882;2023-03-29T06:45:13;9.73;;;4.20;;
70715;SDS011;59053;50.832;12.882;2023-03-29T06:47:45;8.90;;;4.00;;
70715;SDS011;59053;50.832;12.882;2023-03-29T06:50:11;7.95;;;3.85;;
70715;SDS011;59053;50.832;12.882;2023-03-29T06:53:01;10.13;;;4.07;;
70715;SDS011;59053;50.832;12.882;2023-03-29T06:55:28;8.38;;;3.70;;
70715;SDS011;59053;50.832;12.882;2023-03-29T06:57:55;12.52;;;4.18;;
70715;SDS011;59053;50.832;12.882;2023-03-29T07:00:21;9.13;;;3.60;;
70715;SDS011;59053;50.832;12.882;2023-03-29T07:03:07;7.90;;;3.50;;
70715;SDS011;59053;50.832;12.882;2023-03-29T07:05:45;8.55;;;3.75;;
70715;SDS011;59053;50.832;12.882;2023-03-29T07:08:13;7.18;;;3.33;;
70715;SDS011;59053;50.832;12.882;2023-03-29T07:10:52;7.33;;;3.33;;
70715;SDS011;59053;50.832;12.882;2023-03-29T07:13:43;9.98;;;3.58;;
70715;SDS011;59053;50.832;12.882;2023-03-29T07:16:12;9.20;;;3.65;;
70715;SDS011;59053;50.832;12.882;2023-03-29T07:22:07;7.47;;;3.30;;
70715;SDS011;59053;50.832;12.882;2023-03-29T07:24:43;8.10;;;3.20;;
70715;SDS011;59053;50.832;12.882;2023-03-29T07:27:09;8.27;;;3.60;;
70715;SDS011;59053;50.832;12.882;2023-03-29T07:32:21;7.72;;;3.15;;
70715;SDS011;59053;50.832;12.882;2023-03-29T07:35:07;8.02;;;3.53;;
70715;SDS011;59053;50.832;12.882;2023-03-29T07:37:34;9.43;;;3.42;;
70715;SDS011;59053;50.832;12.882;2023-03-29T07:40:02;7.77;;;3.60;;
70715;SDS011;59053;50.832;12.882;2023-03-29T07:42:54;8.77;;;3.50;;
70715;SDS011;59053;50.832;12.882;2023-03-29T07:45:21;9.02;;;3.30;;
70715;SDS011;59053;50.832;12.882;2023-03-29T07:47:57;7.82;;;3.53;;
70715;SDS011;59053;50.832;12.882;2023-03-29T07:50:39;9.00;;;3.70;;
70715;SDS011;59053;50.832;12.882;2023-03-29T07:53:06;9.33;;;3.90;;
70715;SDS011;59053;50.832;12.882;2023-03-29T07:55:31;7.82;;;3.60;;
70715;SDS011;59053;50.832;12.882;2023-03-29T07:58:05;8.02;;;3.53;;
70715;SDS011;59053;50.832;12.882;2023-03-29T08:00:32;9.23;;;3.67;;
70715;SDS011;59053;50.832;12.882;2023-03-29T08:06:09;8.00;;;3.47;;
70715;SDS011;59053;50.832;12.882;2023-03-29T08:08:35;13.70;;;4.63;;
70715;SDS011;59053;50.832;12.882;2023-03-29T08:11:07;7.93;;;3.53;;
70715;SDS011;59053;50.832;12.882;2023-03-29T08:13:43;7.85;;;3.40;;
70715;SDS011;59053;50.832;12.882;2023-03-29T08:16:37;6.77;;;2.90;;
70715;SDS011;59053;50.832;12.882;2023-03-29T08:19:07;7.70;;;3.42;;
70715;SDS011;59053;50.832;12.882;2023-03-29T08:21:55;7.03;;;2.92;;
70715;SDS011;59053;50.832;12.882;2023-03-29T08:24:23;8.88;;;3.10;;
70715;SDS011;59053;50.832;12.882;2023-03-29T08:26:54;6.75;;;3.47;;
70715;SDS011;59053;50.832;12.882;2023-03-29T08:29:19;6.10;;;2.97;;
70715;SDS011;59053;50.832;12.882;2023-03-29T08:31:47;7.57;;;3.53;;
70715;SDS011;59053;50.832;12.882;2023-03-29T08:34:13;6.70;;;3.08;;
70715;SDS011;59053;50.832;12.882;2023-03-29T08:36:48;8.00;;;3.05;;
70715;SDS011;59053;50.832;12.882;2023-03-29T08:39:23;9.27;;;3.23;;
70715;SDS011;59053;50.832;12.882;2023-03-29T08:50:39;8.02;;;3.25;;
70715;SDS011;59053;50.832;12.882;2023-03-29T08:53:09;8.77;;;3.50;;
70715;SDS011;59053;50.832;12.882;2023-03-29T08:59:23;8.73;;;3.60;;
70715;SDS011;59053;50.832;12.882;2023-03-29T09:01:52;15.15;;;4.45;;
70715;SDS011;59053;50.832;12.882;2023-03-29T09:04:25;7.43;;;3.53;;
70715;SDS011;59053;50.832;12.882;2023-03-29T09:07:11;6.53;;;3.20;;
70715;SDS011;59053;50.832;12.882;2023-03-29T09:09:41;7.03;;;3.35;;
70715;SDS011;59053;50.832;12.882;2023-03-29T09:15:14;6.78;;;3.05;;
70715;SDS011;59053;50.832;12.882;2023-03-29T09:20:32;7.20;;;3.00;;
70715;SDS011;59053;50.832;12.882;2023-03-29T09:23:21;8.10;;;3.60;;
70715;SDS011;59053;50.832;12.882;2023-03-29T09:29:57;8.25;;;3.50;;
70715;SDS011;59053;50.832;12.882;2023-03-29T09:32:55;8.00;;;3.22;;
70715;SDS011;59053;50.832;12.882;2023-03-29T09:36:01;8.47;;;3.20;;
70715;SDS011;59053;50.832;12.882;2023-03-29T09:38:42;8.60;;;3.42;;
70715;SDS011;59053;50.832;12.882;2023-03-29T09:41:14;8.07;;;3.50;;
70715;SDS011;59053;50.832;12.882;2023-03-29T09:43:45;7.60;;;3.40;;
70715;SDS011;59053;50.832;12.882;2023-03-29T09:46:29;8.82;;;3.13;;
70715;SDS011;59053;50.832;12.882;2023-03-29T09:49:00;7.07;;;3.30;;
70715;SDS011;59053;50.832;12.882;2023-03-29T09:51:28;7.20;;;3.40;;
70715;SDS011;59053;50.832;12.882;2023-03-29T09:53:54;7.35;;;3.38;;
70715;SDS011;59053;50.832;12.882;2023-03-29T09:56:37;8.00;;;3.70;;
70715;SDS011;59053;50.832;12.882;2023-03-29T09:59:18;8.85;;;3.40;;
70715;SDS011;59053;50.832;12.882;2023-03-29T10:01:45;8.13;;;2.90;;
70715;SDS011;59053;50.832;12.882;2023-03-29T10:04:13;5.80;;;2.90;;
70715;SDS011;59053;50.832;12.882;2023-03-29T10:06:43;8.82;;;2.90;;
70715;SDS011;59053;50.832;12.882;2023-03-29T10:09:14;8.13;;;3.17;;
70715;SDS011;59053;50.832;12.882;2023-03-29T10:11:51;7.13;;;3.03;;
70715;SDS011;59053;50.832;12.882;2023-03-29T10:14:32;6.67;;;2.80;;
70715;SDS011;59053;50.832;12.882;2023-03-29T10:17:02;6.38;;;2.67;;
70715;SDS011;59053;50.832;12.882;2023-03-29T10:19:30;5.70;;;2.90;;
70715;SDS011;59053;50.832;12.882;2023-03-29T10:22:04;5.85;;;3.10;;
70715;SDS011;59053;50.832;12.882;2023-03-29T10:24:31;7.32;;;2.53;;
70715;SDS011;59053;50.832;12.882;2023-03-29T10:27:01;4.87;;;2.50;;
70715;SDS011;59053;50.832;12.882;2023-03-29T10:29:33;8.35;;;2.97;;
70715;SDS011;59053;50.832;12.882;2023-03-29T10:32:00;9.00;;;3.20;;
70715;SDS011;59053;50.832;12.882;2023-03-29T10:34:26;6.63;;;2.90;;
70715;SDS011;59053;50.832;12.882;2023-03-29T10:36:57;6.22;;;2.80;;
70715;SDS011;59053;50.832;12.882;2023-03-29T10:39:33;6.03;;;2.63;;
70715;SDS011;59053;50.832;12.882;2023-03-29T10:41:58;6.00;;;2.67;;
70715;SDS011;59053;50.832;12.882;2023-03-29T10:49:50;7.50;;;2.53;;
70715;SDS011;59053;50.832;12.882;2023-03-29T10:52:18;5.65;;;2.60;;
70715;SDS011;59053;50.832;12.882;2023-03-29T10:54:44;6.63;;;2.90;;
70715;SDS011;59053;50.832;12.882;2023-03-29T10:57:11;4.87;;;2.37;;
70715;SDS011;59053;50.832;12.882;2023-03-29T11:14:49;6.20;;;2.88;;
70715;SDS011;59053;50.832;12.882;2023-03-29T11:17:25;5.60;;;2.88;;
70715;SDS011;59053;50.832;12.882;2023-03-29T11:20:00;7.03;;;2.92;;
70715;SDS011;59053;50.832;12.882;2023-03-29T11:25:05;7.23;;;2.70;;
70715;SDS011;59053;50.832;12.882;2023-03-29T11:41:30;8.15;;;3.05;;
70715;SDS011;59053;50.832;12.882;2023-03-29T11:44:13;7.75;;;3.25;;
70715;SDS011;59053;50.832;12.882;2023-03-29T11:49:35;7.38;;;3.42;;
70715;SDS011;59053;50.832;12.882;2023-03-29T11:52:31;6.63;;;3.00;;
70715;SDS011;59053;50.832;12.882;2023-03-29T11:58:30;7.38;;;3.60;;
70715;SDS011;59053;50.832;12.882;2023-03-29T12:04:11;6.40;;;3.20;;
70715;SDS011;59053;50.832;12.882;2023-03-29T12:06:51;6.60;;;3.00;;
70715;SDS011;59053;50.832;12.882;2023-03-29T12:09:37;8.07;;;3.17;;
70715;SDS011;59053;50.832;12.882;2023-03-29T12:12:07;8.20;;;2.95;;
70715;SDS011;59053;50.832;12.882;2023-03-29T12:14:41;6.70;;;2.95;;
70715;SDS011;59053;50.832;12.882;2023-03-29T12:20:39;5.30;;;2.90;;
70715;SDS011;59053;50.832;12.882;2023-03-29T12:23:07;7.13;;;3.20;;
70715;SDS011;59053;50.832;12.882;2023-03-29T12:25:48;7.90;;;3.10;;
70715;SDS011;59053;50.832;12.882;2023-03-29T12:28:23;7.30;;;3.40;;
70715;SDS011;59053;50.832;12.882;2023-03-29T12:31:07;6.13;;;3.35;;
70715;SDS011;59053;50.832;12.882;2023-03-29T12:33:46;6.37;;;3.57;;
70715;SDS011;59053;50.832;12.882;2023-03-29T12:37:12;7.97;;;3.42;;
70715;SDS011;59053;50.832;12.882;2023-03-29T12:39:44;6.70;;;3.38;;
70715;SDS011;59053;50.832;12.882;2023-03-29T12:43:07;6.85;;;3.50;;
70715;SDS011;59053;50.832;12.882;2023-03-29T12:45:53;8.88;;;3.60;;
70715;SDS011;59053;50.832;12.882;2023-03-29T12:48:21;10.17;;;3.40;;
70715;SDS011;59053;50.832;12.882;2023-03-29T12:50:53;7.28;;;3.50;;
70715;SDS011;59053;50.832;12.882;2023-03-29T12:53:33;11.30;;;3.88;;
70715;SDS011;59053;50.832;12.882;2023-03-29T13:01:05;8.57;;;3.70;;
70715;SDS011;59053;50.832;12.882;2023-03-29T13:03:49;7.68;;;3.40;;
70715;SDS011;59053;50.832;12.882;2023-03-29T13:06:33;8.18;;;3.28;;
70715;SDS011;59053;50.832;12.882;2023-03-29T13:12:39;6.22;;;3.35;;
70715;SDS011;59053;50.832;12.882;2023-03-29T13:14:40;7.35;;;3.20;;
70715;SDS011;59053;50.832;12.882;2023-03-29T13:17:08;6.20;;;3.20;;
70715;SDS011;59053;50.832;12.882;2023-03-29T13:19:50;6.40;;;3.10;;
70715;SDS011;59053;50.832;12.882;2023-03-29T13:22:40;5.77;;;3.13;;
70715;SDS011;59053;50.832;12.882;2023-03-29T13:25:56;6.45;;;3.00;;
70715;SDS011;59053;50.832;12.882;2023-03-29T13:31:27;6.43;;;3.05;;
70715;SDS011;59053;50.832;12.882;2023-03-29T13:34:17;5.18;;;2.80;;
70715;SDS011;59053;50.832;12.882;2023-03-29T13:37:03;5.87;;;3.13;;
70715;SDS011;59053;50.832;12.882;2023-03-29T13:39:31;6.97;;;3.08;;
70715;SDS011;59053;50.832;12.882;2023-03-29T13:44:47;7.95;;;3.08;;
70715;SDS011;59053;50.832;12.882;2023-03-29T13:49:59;5.28;;;2.60;;
70715;SDS011;59053;50.832;12.882;2023-03-29T13:52:29;8.95;;;2.78;;
70715;SDS011;59053;50.832;12.882;2023-03-29T13:55:06;6.03;;;2.92;;
70715;SDS011;59053;50.832;12.882;2023-03-29T13:57:39;8.37;;;2.60;;
70715;SDS011;59053;50.832;12.882;2023-03-29T14:00:12;5.20;;;2.70;;
70715;SDS011;59053;50.832;12.882;2023-03-29T14:02:43;5.28;;;2.58;;
70715;SDS011;59053;50.832;12.882;2023-03-29T14:05:12;5.78;;;2.60;;
70715;SDS011;59053;50.832;12.882;2023-03-29T14:07:43;7.57;;;3.10;;
70715;SDS011;59053;50.832;12.882;2023-03-29T14:10:12;4.80;;;2.70;;
70715;SDS011;59053;50.832;12.882;2023-03-29T14:12:39;6.00;;;2.92;;
70715;SDS011;59053;50.832;12.882;2023-03-29T14:15:05;5.88;;;3.10;;
70715;SDS011;59053;50.832;12.882;2023-03-29T14:17:31;7.72;;;2.97;;
70715;SDS011;59053;50.832;12.882;2023-03-29T14:19:57;5.93;;;2.83;;
70715;SDS011;59053;50.832;12.882;2023-03-29T14:22:23;5.75;;;2.67;;
70715;SDS011;59053;50.832;12.882;2023-03-29T14:25:00;6.05;;;2.78;;
70715;SDS011;59053;50.832;12.882;2023-03-29T14:27:30;5.63;;;3.00;;
70715;SDS011;59053;50.832;12.882;2023-03-29T14:29:55;5.35;;;2.72;;
70715;SDS011;59053;50.832;12.882;2023-03-29T14:32:27;7.83;;;2.90;;
70715;SDS011;59053;50.832;12.882;2023-03-29T14:34:54;5.10;;;2.55;;
70715;SDS011;59053;50.832;12.882;2023-03-29T14:37:21;6.20;;;2.80;;
70715;SDS011;59053;50.832;12.882;2023-03-29T14:39:51;7.47;;;2.42;;
70715;SDS011;59053;50.832;12.882;2023-03-29T14:45:19;4.50;;;2.42;;
70715;SDS011;59053;50.832;12.882;2023-03-29T14:47:47;6.63;;;2.53;;
70715;SDS011;59053;50.832;12.882;2023-03-29T14:50:24;5.67;;;2.53;;
70715;SDS011;59053;50.832;12.882;2023-03-29T14:52:51;5.63;;;2.30;;
70715;SDS011;59053;50.832;12.882;2023-03-29T14:55:17;5.90;;;2.50;;
70715;SDS011;59053;50.832;12.882;2023-03-29T14:57:47;5.72;;;2.50;;
70715;SDS011;59053;50.832;12.882;2023-03-29T15:00:21;5.55;;;2.60;;
70715;SDS011;59053;50.832;12.882;2023-03-29T15:02:57;5.35;;;2.70;;
70715;SDS011;59053;50.832;12.882;2023-03-29T15:05:31;5.15;;;2.70;;
70715;SDS011;59053;50.832;12.882;2023-03-29T15:08:00;4.77;;;2.50;;
70715;SDS011;59053;50.832;12.882;2023-03-29T15:10:26;3.90;;;2.30;;
70715;SDS011;59053;50.832;12.882;2023-03-29T15:12:51;4.80;;;2.40;;
70715;SDS011;59053;50.832;12.882;2023-03-29T15:15:21;7.97;;;2.25;;
70715;SDS011;59053;50.832;12.882;2023-03-29T15:17:47;5.25;;;2.40;;
70715;SDS011;59053;50.832;12.882;2023-03-29T15:20:20;3.93;;;2.40;;
70715;SDS011;59053;50.832;12.882;2023-03-29T15:22:52;5.05;;;2.30;;
70715;SDS011;59053;50.832;12.882;2023-03-29T15:25:26;5.22;;;2.10;;
70715;SDS011;59053;50.832;12.882;2023-03-29T15:27:57;5.80;;;2.08;;
70715;SDS011;59053;50.832;12.882;2023-03-29T15:33:21;5.18;;;2.00;;
70715;SDS011;59053;50.832;12.882;2023-03-29T15:35:48;5.25;;;2.38;;
70715;SDS011;59053;50.832;12.882;2023-03-29T15:38:15;5.17;;;2.07;;
70715;SDS011;59053;50.832;12.882;2023-03-29T15:40:41;4.43;;;1.90;;
70715;SDS011;59053;50.832;12.882;2023-03-29T15:43:06;4.17;;;2.10;;
70715;SDS011;59053;50.832;12.882;2023-03-29T15:45:31;4.23;;;1.93;;
70715;SDS011;59053;50.832;12.882;2023-03-29T15:47:57;4.30;;;1.80;;
70715;SDS011;59053;50.832;12.882;2023-03-29T15:50:25;4.30;;;2.15;;
70715;SDS011;59053;50.832;12.882;2023-03-29T15:52:51;3.67;;;2.00;;
70715;SDS011;59053;50.832;12.882;2023-03-29T15:55:19;3.53;;;1.80;;
70715;SDS011;59053;50.832;12.882;2023-03-29T15:57:45;5.03;;;2.10;;
70715;SDS011;59053;50.832;12.882;2023-03-29T16:00:12;3.65;;;2.08;;
70715;SDS011;59053;50.832;12.882;2023-03-29T16:02:38;8.02;;;2.40;;
70715;SDS011;59053;50.832;12.882;2023-03-29T16:05:09;5.30;;;2.10;;
70715;SDS011;59053;50.832;12.882;2023-03-29T16:07:37;5.15;;;1.90;;
70715;SDS011;59053;50.832;12.882;2023-03-29T16:13:02;4.13;;;1.83;;
70715;SDS011;59053;50.832;12.882;2023-03-29T16:15:35;4.60;;;2.20;;
70715;SDS011;59053;50.832;12.882;2023-03-29T16:18:09;5.20;;;2.13;;
70715;SDS011;59053;50.832;12.882;2023-03-29T16:20:44;3.75;;;2.05;;
70715;SDS011;59053;50.832;12.882;2023-03-29T16:23:10;3.47;;;1.77;;
70715;SDS011;59053;50.832;12.882;2023-03-29T16:25:36;4.53;;;2.08;;
70715;SDS011;59053;50.832;12.882;2023-03-29T16:28:03;6.55;;;2.30;;
70715;SDS011;59053;50.832;12.882;2023-03-29T16:30:29;4.90;;;2.27;;
70715;SDS011;59053;50.832;12.882;2023-03-29T16:32:55;4.35;;;2.10;;
70715;SDS011;59053;50.832;12.882;2023-03-29T16:35:30;6.00;;;2.30;;
70715;SDS011;59053;50.832;12.882;2023-03-29T16:38:05;5.60;;;2.10;;
70715;SDS011;59053;50.832;12.882;2023-03-29T16:40:31;5.78;;;2.20;;
70715;SDS011;59053;50.832;12.882;2023-03-29T16:42:57;4.07;;;2.25;;
70715;SDS011;59053;50.832;12.882;2023-03-29T16:45:22;4.10;;;1.97;;
70715;SDS011;59053;50.832;12.882;2023-03-29T16:47:48;4.93;;;2.00;;
70715;SDS011;59053;50.832;12.882;2023-03-29T16:50:14;4.50;;;2.13;;
70715;SDS011;59053;50.832;12.882;2023-03-29T16:52:43;5.65;;;2.30;;
70715;SDS011;59053;50.832;12.882;2023-03-29T16:55:10;4.33;;;1.93;;
70715;SDS011;59053;50.832;12.882;2023-03-29T16:57:37;5.50;;;2.33;;
70715;SDS011;59053;50.832;12.882;2023-03-29T17:00:03;4.95;;;2.42;;
70715;SDS011;59053;50.832;12.882;2023-03-29T17:02:31;5.03;;;2.30;;
70715;SDS011;59053;50.832;12.882;2023-03-29T17:04:56;6.40;;;2.30;;
70715;SDS011;59053;50.832;12.882;2023-03-29T17:07:22;7.03;;;2.10;;
70715;SDS011;59053;50.832;12.882;2023-03-29T17:12:32;4.43;;;2.25;;
70715;SDS011;59053;50.832;12.882;2023-03-29T17:15:00;4.53;;;2.30;;
70715;SDS011;59053;50.832;12.882;2023-03-29T17:17:25;5.95;;;2.40;;
70715;SDS011;59053;50.832;12.882;2023-03-29T17:19:50;6.27;;;2.50;;
70715;SDS011;59053;50.832;12.882;2023-03-29T17:22:16;6.33;;;2.50;;
70715;SDS011;59053;50.832;12.882;2023-03-29T17:24:41;7.53;;;3.67;;
70715;SDS011;59053;50.832;12.882;2023-03-29T17:27:07;7.25;;;2.92;;
70715;SDS011;59053;50.832;12.882;2023-03-29T17:29:32;4.60;;;2.30;;
70715;SDS011;59053;50.832;12.882;2023-03-29T17:32:00;6.60;;;2.90;;
70715;SDS011;59053;50.832;12.882;2023-03-29T17:34:26;4.53;;;2.55;;
70715;SDS011;59053;50.832;12.882;2023-03-29T17:36:55;5.15;;;2.30;;
70715;SDS011;59053;50.832;12.882;2023-03-29T17:39:24;5.03;;;2.10;;
70715;SDS011;59053;50.832;12.882;2023-03-29T17:41:51;5.25;;;2.20;;
70715;SDS011;59053;50.832;12.882;2023-03-29T17:44:17;10.97;;;2.57;;
70715;SDS011;59053;50.832;12.882;2023-03-29T17:46:44;5.78;;;2.10;;
70715;SDS011;59053;50.832;12.882;2023-03-29T17:49:11;5.82;;;2.20;;